Time;durP1;ratioP1;P1;durP2;ratioP2;P2;SDS_P1;SDS_P2;PMS_P1;PMS_P2;Temp;Humidity;BMP_temperature;BMP_pressure;BME280_temperature;BME280_humidity;BME280_pressure;Samples;Min_cycle;Max_cycle;Signal;HPM_P1;HPM_P2
2021/05/08 00:01:37;;;;;;;12.55;8.75;;;4.00;99.90;;;;;;5026726;28;20152;-77
2021/05/08 00:04:04;;;;;;;14.20;9.20;;;4.00;99.90;;;;;;5021279;28;20041;-78
2021/05/08 00:06:33;;;;;;;17.98;8.40;;;4.50;99.90;;;;;;5039294;28;20038;-78
2021/05/08 00:08:59;;;;;;;14.90;7.90;;;4.00;99.90;;;;;;5025319;28;20041;-78
2021/05/08 00:11:25;;;;;;;13.07;7.80;;;4.00;99.90;;;;;;5026087;28;20644;-77
2021/05/08 00:13:50;;;;;;;16.40;8.10;;;4.00;99.90;;;;;;5017825;28;20033;-78
2021/05/08 00:16:16;;;;;;;17.98;8.63;;;4.10;99.90;;;;;;5028941;28;20064;-78
2021/05/08 00:18:42;;;;;;;;;;;4.00;99.90;;;;;;5018103;28;20129;-78
2021/05/08 00:21:08;;;;;;;13.13;8.02;;;4.00;99.90;;;;;;5016024;28;20399;-78
2021/05/08 00:23:34;;;;;;;17.95;8.50;;;4.10;99.90;;;;;;5026625;28;20049;-78
2021/05/08 00:26:02;;;;;;;12.52;8.20;;;4.00;99.90;;;;;;5020312;28;20332;-78
2021/05/08 00:28:28;;;;;;;14.15;8.07;;;4.00;99.90;;;;;;5021467;28;20190;-77
2021/05/08 00:30:55;;;;;;;15.38;7.97;;;3.90;99.90;;;;;;5029667;28;20136;-78
2021/05/08 00:33:32;;;;;;;19.35;8.98;;;3.90;99.90;;;;;;5022074;28;20042;-78
2021/05/08 00:35:58;;;;;;;13.88;7.78;;;3.90;99.90;;;;;;5019740;28;20040;-77
2021/05/08 00:38:24;;;;;;;12.48;7.97;;;3.90;99.90;;;;;;5042130;28;20056;-77
2021/05/08 00:40:49;;;;;;;13.20;7.93;;;3.80;99.90;;;;;;5036242;28;20042;-78
2021/05/08 00:43:16;;;;;;;16.10;8.80;;;3.80;99.90;;;;;;5026820;28;20121;-76
2021/05/08 00:45:42;;;;;;;14.98;9.02;;;3.70;99.90;;;;;;5018282;28;20480;-77
2021/05/08 00:48:10;;;;;;;;;;;3.60;99.90;;;;;;5028093;28;20487;-77
2021/05/08 00:50:36;;;;;;;13.80;8.02;;;3.50;99.90;;;;;;5024828;28;19917;-78
2021/05/08 00:53:03;;;;;;;13.77;8.48;;;3.40;99.90;;;;;;5028737;28;20491;-77
2021/05/08 00:55:30;;;;;;;15.50;9.90;;;3.30;99.90;;;;;;5033088;28;20049;-76
2021/05/08 00:57:56;;;;;;;16.13;9.05;;;3.30;99.90;;;;;;5031360;28;20647;-77
2021/05/08 01:00:22;;;;;;;15.18;9.75;;;3.30;99.90;;;;;;5038139;28;20068;-77
2021/05/08 01:02:48;;;;;;;18.42;9.52;;;3.40;99.90;;;;;;5046777;28;20064;-78
2021/05/08 01:05:15;;;;;;;16.00;8.65;;;3.40;99.90;;;;;;5025702;28;20041;-78
2021/05/08 01:07:41;;;;;;;16.27;8.98;;;3.40;99.90;;;;;;5028616;28;20062;-77
2021/05/08 01:10:10;;;;;;;13.50;9.27;;;3.30;99.90;;;;;;5025994;28;20033;-78
2021/05/08 01:12:38;;;;;;;14.75;9.35;;;3.30;99.90;;;;;;5023637;28;20034;-78
2021/05/08 01:15:06;;;;;;;15.25;9.02;;;3.30;99.90;;;;;;5035819;28;20057;-78
2021/05/08 01:17:33;;;;;;;15.57;9.23;;;3.30;99.90;;;;;;5030543;28;20037;-78
2021/05/08 01:19:59;;;;;;;16.95;9.07;;;3.30;99.90;;;;;;5040278;28;20038;-77
2021/05/08 01:22:27;;;;;;;14.88;9.60;;;3.90;99.90;;;;;;5027720;28;20037;-77
2021/05/08 01:24:53;;;;;;;17.25;9.07;;;3.30;99.90;;;;;;5028339;28;20065;-77
2021/05/08 01:27:19;;;;;;;13.93;9.93;;;3.20;99.90;;;;;;5051289;28;20124;-79
2021/05/08 01:29:45;;;;;;;12.55;9.35;;;3.10;99.90;;;;;;5012842;28;20030;-77
2021/05/08 01:32:11;;;;;;;16.08;9.27;;;3.10;99.90;;;;;;5027494;28;20326;-78
2021/05/08 01:34:37;;;;;;;13.90;9.70;;;3.00;99.90;;;;;;5025552;28;20099;-78
2021/05/08 01:37:03;;;;;;;17.35;9.73;;;2.90;99.90;;;;;;5040108;28;20371;-77
2021/05/08 01:39:30;;;;;;;16.50;10.30;;;2.90;99.90;;;;;;5030916;28;20049;-78
2021/05/08 01:41:56;;;;;;;15.75;9.70;;;3.00;99.90;;;;;;5034339;28;20045;-77
2021/05/08 01:44:22;;;;;;;15.10;9.68;;;3.50;99.90;;;;;;5028078;28;20117;-77
2021/05/08 01:46:48;;;;;;;16.05;9.07;;;2.80;99.90;;;;;;5029084;28;20037;-77
2021/05/08 01:49:14;;;;;;;14.52;9.88;;;2.70;99.90;;;;;;5017651;28;20332;-77
2021/05/08 01:51:40;;;;;;;14.80;10.20;;;2.70;99.90;;;;;;5029558;28;20133;-78
2021/05/08 01:54:06;;;;;;;16.63;10.27;;;3.70;99.90;;;;;;5040925;28;20497;-78
2021/05/08 01:56:31;;;;;;;19.77;10.70;;;2.60;99.90;;;;;;5031716;28;20443;-78
2021/05/08 01:58:57;;;;;;;19.13;10.02;;;2.60;99.90;;;;;;5031272;28;20420;-78
2021/05/08 02:01:23;;;;;;;15.70;10.20;;;2.60;99.90;;;;;;5022562;28;20071;-77
2021/05/08 02:03:49;;;;;;;16.85;10.50;;;2.50;99.90;;;;;;5029097;28;20108;-78
2021/05/08 02:06:15;;;;;;;17.35;11.10;;;2.50;99.90;;;;;;5024617;28;20030;-79
2021/05/08 02:08:41;;;;;;;16.85;10.70;;;2.50;99.90;;;;;;5030518;28;20049;-78
2021/05/08 02:11:07;;;;;;;17.25;10.77;;;2.40;99.90;;;;;;5045608;28;20076;-78
2021/05/08 02:13:33;;;;;;;18.23;10.95;;;2.40;99.90;;;;;;5032837;28;20118;-78
2021/05/08 02:15:59;;;;;;;14.85;9.82;;;2.40;99.90;;;;;;5023804;28;20040;-78
2021/05/08 02:18:24;;;;;;;17.80;10.02;;;2.30;99.90;;;;;;5017770;28;20109;-77
2021/05/08 02:20:50;;;;;;;14.82;9.85;;;2.30;99.90;;;;;;5027872;28;20037;-78
2021/05/08 02:23:18;;;;;;;20.48;10.05;;;2.30;99.90;;;;;;5046889;28;20053;-77
2021/05/08 02:25:44;;;;;;;16.17;10.20;;;2.20;99.90;;;;;;5040156;28;20427;-78
2021/05/08 02:28:10;;;;;;;24.63;10.80;;;2.20;99.90;;;;;;5029685;28;20163;-77
2021/05/08 02:30:40;;;;;;;18.13;10.43;;;2.10;99.90;;;;;;5025437;28;20034;-78
2021/05/08 02:33:07;;;;;;;17.20;10.52;;;2.10;99.90;;;;;;5037031;28;20518;-78
2021/05/08 02:35:34;;;;;;;18.85;10.40;;;2.00;99.90;;;;;;5026410;28;20112;-78
2021/05/08 02:38:00;;;;;;;16.50;10.35;;;2.00;99.90;;;;;;5035704;28;20463;-78
2021/05/08 02:40:28;;;;;;;17.15;9.77;;;1.90;99.90;;;;;;5021455;28;20060;-78
2021/05/08 02:42:59;;;;;;;17.65;10.20;;;1.90;99.90;;;;;;5018231;28;20118;-78
2021/05/08 02:45:25;;;;;;;;;;;1.90;99.90;;;;;;5026532;28;20045;-78
2021/05/08 02:47:51;;;;;;;17.00;9.52;;;2.30;99.90;;;;;;5038797;28;19917;-78
2021/05/08 02:50:19;;;;;;;19.35;9.90;;;1.80;99.90;;;;;;5012750;28;20068;-78
2021/05/08 02:52:46;;;;;;;17.77;10.15;;;1.80;99.90;;;;;;5032154;28;20052;-78
2021/05/08 02:55:13;;;;;;;16.05;9.77;;;1.70;99.90;;;;;;5019046;28;20390;-78
2021/05/08 02:57:39;;;;;;;17.55;11.35;;;1.70;99.90;;;;;;5025248;28;20038;-78
2021/05/08 03:00:10;;;;;;;17.40;10.52;;;1.70;99.90;;;;;;5030249;28;20478;-78
2021/05/08 03:02:39;;;;;;;24.13;12.38;;;1.60;99.90;;;;;;5027544;28;20482;-77
2021/05/08 03:05:06;;;;;;;18.65;11.40;;;1.60;99.90;;;;;;5024546;28;20037;-78
2021/05/08 03:07:32;;;;;;;20.75;11.05;;;1.60;99.90;;;;;;5046087;28;20041;-78
2021/05/08 03:09:58;;;;;;;19.85;12.05;;;1.60;99.90;;;;;;5026901;28;20030;-78
2021/05/08 03:12:24;;;;;;;23.50;12.35;;;1.60;99.90;;;;;;5028628;28;20375;-77
2021/05/08 03:14:50;;;;;;;24.92;12.23;;;1.60;99.90;;;;;;5026313;28;20040;-78
2021/05/08 03:17:15;;;;;;;23.17;13.77;;;1.60;99.90;;;;;;5020935;28;20041;-78
2021/05/08 03:19:41;;;;;;;23.92;12.75;;;1.70;99.90;;;;;;5026590;28;20108;-78
2021/05/08 03:22:07;;;;;;;28.40;13.75;;;1.70;99.90;;;;;;5025723;28;20425;-78
2021/05/08 03:24:36;;;;;;;22.92;13.02;;;1.70;99.90;;;;;;5029857;28;20163;-78
2021/05/08 03:27:02;;;;;;;;;;;1.80;99.90;;;;;;5015488;28;20529;-78
2021/05/08 03:29:30;;;;;;;22.20;12.75;;;1.80;99.90;;;;;;5028742;28;19917;-78
2021/05/08 03:31:56;;;;;;;23.88;13.00;;;1.70;99.90;;;;;;5028372;28;20036;-78
2021/05/08 03:34:23;;;;;;;24.00;13.57;;;1.80;99.90;;;;;;5012532;28;20038;-78
2021/05/08 03:36:49;;;;;;;22.15;13.10;;;1.80;99.90;;;;;;5028475;28;20057;-78
2021/05/08 03:39:15;;;;;;;;;;;1.80;99.90;;;;;;5027001;28;20053;-78
2021/05/08 03:41:44;;;;;;;19.25;11.55;;;1.80;99.90;;;;;;5044918;28;20317;-78
2021/05/08 03:44:10;;;;;;;19.58;10.63;;;1.70;99.90;;;;;;5028365;28;20029;-77
2021/05/08 03:46:36;;;;;;;19.92;12.13;;;1.60;99.90;;;;;;5028459;28;20513;-77
2021/05/08 03:49:02;;;;;;;21.80;12.10;;;1.60;99.90;;;;;;5019945;28;20121;-77
2021/05/08 03:51:28;;;;;;;18.05;10.93;;;1.60;99.90;;;;;;5031266;28;20109;-79
2021/05/08 03:53:54;;;;;;;;;;;1.60;99.90;;;;;;5035864;28;20064;-77
2021/05/08 03:56:21;;;;;;;17.60;10.82;;;1.60;99.90;;;;;;5032425;28;19921;-77
2021/05/08 03:58:47;;;;;;;21.85;12.68;;;1.60;99.90;;;;;;5037378;28;20033;-78
2021/05/08 04:01:13;;;;;;;25.50;13.00;;;2.80;99.90;;;;;;5025507;28;20045;-78
2021/05/08 04:03:39;;;;;;;21.23;13.13;;;1.50;99.90;;;;;;5036967;28;20045;-78
2021/05/08 04:06:05;;;;;;;;;;;1.50;99.90;;;;;;5028537;28;20062;-77
2021/05/08 04:08:31;;;;;;;23.00;13.43;;;1.40;99.90;;;;;;5042136;28;19928;-77
2021/05/08 04:10:57;;;;;;;30.02;14.73;;;1.40;99.90;;;;;;5040209;28;20033;-76
2021/05/08 04:13:22;;;;;;;;;;;1.50;99.90;;;;;;5041016;28;20103;-78
2021/05/08 04:15:48;;;;;;;21.77;13.05;;;1.50;99.90;;;;;;5038063;28;20275;-78
2021/05/08 04:18:14;;;;;;;20.45;13.18;;;1.60;99.90;;;;;;5040515;28;20048;-78
2021/05/08 04:20:40;;;;;;;19.55;12.00;;;1.60;99.90;;;;;;5024200;28;20084;-78
2021/05/08 04:23:06;;;;;;;27.77;14.60;;;2.30;99.90;;;;;;5040885;28;20037;-78
2021/05/08 04:25:33;;;;;;;22.23;12.30;;;1.70;99.90;;;;;;5031395;28;20384;-78
2021/05/08 04:28:01;;;;;;;22.15;12.25;;;1.90;99.90;;;;;;5046937;28;20052;-78
2021/05/08 04:30:31;;;;;;;21.58;12.88;;;1.90;99.90;;;;;;5030296;28;20041;-78
2021/05/08 04:32:57;;;;;;;25.40;14.00;;;2.00;99.90;;;;;;5010778;28;20034;-78
2021/05/08 04:35:23;;;;;;;23.95;13.93;;;2.10;99.90;;;;;;5033589;28;20041;-78
2021/05/08 04:37:49;;;;;;;22.10;13.88;;;2.20;99.90;;;;;;5024905;28;20141;-79
2021/05/08 04:40:15;;;;;;;26.50;16.75;;;2.40;99.90;;;;;;5026477;28;20056;-78
2021/05/08 04:42:40;;;;;;;24.17;15.13;;;2.60;99.90;;;;;;5029879;28;20449;-79
2021/05/08 04:45:07;;;;;;;38.55;16.42;;;2.80;99.90;;;;;;5043867;28;20044;-79
2021/05/08 04:47:33;;;;;;;29.15;15.32;;;3.00;99.90;;;;;;5023076;28;20038;-79
2021/05/08 04:50:01;;;;;;;27.55;16.25;;;3.20;99.90;;;;;;5024514;28;20141;-78
2021/05/08 04:52:27;;;;;;;25.88;16.38;;;3.40;99.90;;;;;;5039788;28;20065;-78
2021/05/08 04:54:56;;;;;;;26.25;15.88;;;3.70;99.90;;;;;;5031997;28;20042;-78
2021/05/08 04:57:22;;;;;;;24.25;15.43;;;3.80;99.90;;;;;;5014830;28;20148;-78
2021/05/08 04:59:48;;;;;;;22.90;14.90;;;3.90;99.90;;;;;;5025072;28;20034;-78
2021/05/08 05:02:14;;;;;;;26.27;14.70;;;4.00;99.90;;;;;;5025109;28;20410;-78
2021/05/08 05:04:39;;;;;;;22.17;14.23;;;4.10;99.90;;;;;;5011737;28;20042;-79
2021/05/08 05:07:05;;;;;;;17.90;11.93;;;4.10;99.90;;;;;;5023744;28;20037;-79
2021/05/08 05:09:36;;;;;;;20.35;12.27;;;4.10;99.90;;;;;;5025099;28;20041;-79
2021/05/08 05:12:04;;;;;;;19.27;12.93;;;4.20;99.90;;;;;;5027821;28;20056;-79
2021/05/08 05:14:30;;;;;;;17.98;11.82;;;4.20;99.90;;;;;;5020625;28;20038;-79
2021/05/08 05:16:56;;;;;;;20.77;13.15;;;4.20;99.90;;;;;;5011790;28;20121;-79
2021/05/08 05:19:22;;;;;;;17.80;12.63;;;4.30;99.90;;;;;;5027689;28;20060;-79
2021/05/08 05:21:48;;;;;;;14.82;10.88;;;4.40;99.90;;;;;;5026857;28;20463;-79
2021/05/08 05:24:14;;;;;;;18.00;11.85;;;4.50;99.90;;;;;;5018533;28;20031;-78
2021/05/08 05:26:41;;;;;;;;;;;5.00;99.90;;;;;;5017617;28;20385;-79
2021/05/08 05:29:12;;;;;;;14.45;9.75;;;4.90;99.90;;;;;;5028719;28;19920;-78
2021/05/08 05:31:38;;;;;;;14.57;10.82;;;4.70;99.90;;;;;;5027824;28;20079;-78
2021/05/08 05:34:05;;;;;;;17.58;12.00;;;4.90;99.90;;;;;;5019945;28;20038;-78
2021/05/08 05:36:34;;;;;;;15.35;10.40;;;4.90;99.90;;;;;;5005517;28;20064;-78
2021/05/08 05:39:01;;;;;;;16.85;10.80;;;5.00;99.90;;;;;;5024268;28;20356;-78
2021/05/08 05:41:27;;;;;;;16.60;11.55;;;5.10;99.90;;;;;;5025423;28;20115;-79
2021/05/08 05:43:54;;;;;;;15.32;10.60;;;5.20;99.90;;;;;;5019842;28;20065;-79
2021/05/08 05:46:21;;;;;;;15.15;10.70;;;5.30;99.90;;;;;;5016685;28;20096;-78
2021/05/08 05:48:47;;;;;;;13.15;10.48;;;5.40;99.90;;;;;;5020046;28;20041;-78
2021/05/08 05:51:14;;;;;;;17.05;10.32;;;5.50;99.90;;;;;;5037199;28;20029;-79
2021/05/08 05:53:39;;;;;;;14.60;9.68;;;5.50;99.90;;;;;;5013186;28;20107;-79
2021/05/08 05:56:05;;;;;;;17.23;10.00;;;5.60;99.90;;;;;;5023338;28;20045;-78
2021/05/08 05:58:36;;;;;;;14.07;9.43;;;5.60;99.90;;;;;;5031826;28;20041;-78
2021/05/08 06:01:02;;;;;;;15.80;9.77;;;5.70;99.90;;;;;;5004539;28;20042;-78
2021/05/08 06:03:28;;;;;;;17.88;9.65;;;5.70;99.90;;;;;;5030496;28;20034;-78
2021/05/08 06:05:54;;;;;;;16.00;10.68;;;5.80;99.90;;;;;;5029979;28;20061;-78
2021/05/08 06:08:20;;;;;;;13.30;10.00;;;5.90;99.90;;;;;;5045355;28;20040;-77
2021/05/08 06:10:45;;;;;;;13.75;9.60;;;6.00;99.90;;;;;;5030354;28;20041;-78
2021/05/08 06:13:11;;;;;;;14.50;9.38;;;5.90;99.90;;;;;;5045213;28;20136;-77
2021/05/08 06:15:37;;;;;;;13.05;9.18;;;5.90;99.90;;;;;;5022719;28;20051;-78
2021/05/08 06:18:03;;;;;;;14.40;9.23;;;5.90;99.90;;;;;;5028009;28;20056;-77
2021/05/08 06:20:29;;;;;;;12.73;8.52;;;6.00;99.90;;;;;;5028326;28;20121;-78
2021/05/08 06:22:58;;;;;;;13.73;8.68;;;6.10;99.90;;;;;;5029921;28;20053;-77
2021/05/08 06:25:24;;;;;;;15.27;8.75;;;6.20;99.90;;;;;;5025687;28;20092;-79
2021/05/08 06:27:50;;;;;;;13.95;9.63;;;6.30;99.90;;;;;;5019172;28;20034;-78
2021/05/08 06:30:16;;;;;;;;;;;6.40;99.90;;;;;;5016501;28;20128;-77
2021/05/08 06:32:42;;;;;;;18.50;8.68;;;6.60;99.90;;;;;;5039573;28;20039;-78
2021/05/08 06:35:08;;;;;;;14.60;9.80;;;6.80;99.90;;;;;;5030223;28;20502;-79
2021/05/08 06:37:34;;;;;;;15.35;9.88;;;6.90;99.90;;;;;;5030449;28;20069;-78
2021/05/08 06:40:01;;;;;;;13.02;9.32;;;7.00;99.90;;;;;;5044893;28;20471;-78
2021/05/08 06:42:27;;;;;;;14.55;9.73;;;7.50;99.90;;;;;;5026619;28;20033;-79
2021/05/08 06:44:53;;;;;;;13.32;9.27;;;7.40;99.90;;;;;;5027757;28;20116;-79
2021/05/08 06:47:19;;;;;;;17.52;9.48;;;7.60;99.90;;;;;;5029160;28;20038;-79
2021/05/08 06:49:45;;;;;;;14.80;9.18;;;7.70;99.90;;;;;;5041740;28;20046;-80
2021/05/08 06:52:11;;;;;;;13.18;8.80;;;7.90;99.90;;;;;;5030640;28;20537;-79
2021/05/08 06:54:37;;;;;;;17.02;9.45;;;7.90;99.90;;;;;;5043182;28;20042;-77
2021/05/08 06:57:04;;;;;;;16.75;9.65;;;8.10;99.90;;;;;;5020866;28;20091;-79
2021/05/08 06:59:33;;;;;;;15.77;10.23;;;8.20;99.90;;;;;;5022998;28;20069;-78
2021/05/08 07:01:58;;;;;;;;;;;8.30;99.90;;;;;;5040459;28;20034;-78
2021/05/08 07:04:25;;;;;;;12.85;9.43;;;8.40;99.90;;;;;;5030146;28;19931;-78
2021/05/08 07:06:50;;;;;;;12.40;9.60;;;8.50;99.90;;;;;;5023537;28;20033;-76
2021/05/08 07:09:16;;;;;;;15.52;8.93;;;8.60;99.90;;;;;;5029531;28;20061;-77
2021/05/08 07:11:42;;;;;;;13.65;10.10;;;8.60;99.90;;;;;;5020777;28;20030;-77
2021/05/08 07:14:08;;;;;;;13.23;9.38;;;8.70;99.90;;;;;;5025119;28;20040;-76
2021/05/08 07:16:34;;;;;;;12.63;9.73;;;8.80;99.90;;;;;;5037072;28;20034;-77
2021/05/08 07:18:59;;;;;;;11.10;8.10;;;8.90;99.90;;;;;;5022406;28;20030;-78
2021/05/08 07:21:25;;;;;;;14.10;8.77;;;8.90;99.90;;;;;;5028219;28;20498;-77
2021/05/08 07:23:51;;;;;;;10.80;8.60;;;9.10;99.90;;;;;;5018598;28;20029;-77
2021/05/08 07:26:18;;;;;;;12.05;8.52;;;9.20;99.90;;;;;;5021706;28;20040;-78
2021/05/08 07:28:45;;;;;;;11.50;8.52;;;9.30;99.90;;;;;;5019053;28;20045;-77
2021/05/08 07:31:10;;;;;;;11.45;7.88;;;9.50;99.90;;;;;;5025486;28;20037;-78
2021/05/08 07:33:36;;;;;;;11.27;8.23;;;9.50;99.90;;;;;;5021526;28;20561;-77
2021/05/08 07:36:02;;;;;;;14.38;9.20;;;9.50;99.90;;;;;;5020046;28;20095;-76
2021/05/08 07:38:28;;;;;;;9.23;7.93;;;9.60;99.90;;;;;;5026085;28;20053;-78
2021/05/08 07:40:54;;;;;;;13.15;8.43;;;9.70;99.90;;;;;;5027970;28;20042;-78
2021/05/08 07:43:21;;;;;;;13.43;8.68;;;9.90;99.90;;;;;;5034480;28;20049;-77
2021/05/08 07:45:50;;;;;;;9.35;8.05;;;9.90;99.90;;;;;;5040070;28;20029;-78
2021/05/08 07:48:17;;;;;;;10.93;7.97;;;10.10;99.90;;;;;;5029229;28;20477;-77
2021/05/08 07:50:43;;;;;;;10.38;8.38;;;10.20;99.70;;;;;;5026618;28;20084;-76
2021/05/08 07:53:09;;;;;;;11.65;7.70;;;10.40;99.30;;;;;;5022608;28;20057;-77
2021/05/08 07:55:37;;;;;;;11.60;8.68;;;10.50;99.00;;;;;;5025635;28;20038;-79
2021/05/08 07:58:04;;;;;;;10.13;7.63;;;10.60;99.90;;;;;;5025673;28;20077;-77
2021/05/08 08:00:30;;;;;;;10.05;7.25;;;10.80;99.90;;;;;;5020725;28;20042;-79
2021/05/08 08:03:10;;;;;;;10.73;7.50;;;11.00;99.90;;;;;;5024142;28;20042;-79
2021/05/08 08:05:39;;;;;;;11.13;8.00;;;11.20;99.90;;;;;;5021111;28;20128;-77
2021/05/08 08:08:05;;;;;;;10.02;7.47;;;11.30;99.90;;;;;;5035507;28;20086;-77
2021/05/08 08:10:31;;;;;;;8.93;7.30;;;11.40;99.90;;;;;;5019691;28;20479;-81
2021/05/08 08:12:58;;;;;;;10.90;7.63;;;11.60;99.80;;;;;;5036406;28;20068;-78
2021/05/08 08:15:23;;;;;;;11.30;7.63;;;11.70;99.40;;;;;;5009470;28;20070;-78
2021/05/08 08:17:49;;;;;;;8.52;7.20;;;11.80;99.00;;;;;;5031182;28;20103;-79
2021/05/08 08:20:15;;;;;;;10.70;7.18;;;11.80;98.30;;;;;;5025218;28;20108;-78
2021/05/08 08:22:42;;;;;;;9.57;7.25;;;11.80;96.60;;;;;;5009550;28;20049;-79
2021/05/08 08:25:13;;;;;;;9.32;6.80;;;11.90;97.20;;;;;;5025314;28;20033;-78
2021/05/08 08:27:39;;;;;;;7.57;6.30;;;12.00;96.00;;;;;;5023981;28;20029;-78
2021/05/08 08:30:08;;;;;;;9.95;6.70;;;12.20;95.00;;;;;;5033068;28;20037;-78
2021/05/08 08:32:34;;;;;;;9.82;6.53;;;12.20;94.50;;;;;;5020789;28;20037;-80
2021/05/08 08:35:00;;;;;;;;;;;12.30;93.50;;;;;;5020910;28;20724;-79
2021/05/08 08:37:26;;;;;;;8.65;6.40;;;12.40;91.90;;;;;;5023009;28;19929;-76
2021/05/08 08:39:52;;;;;;;8.30;6.05;;;12.40;92.70;;;;;;5040814;28;20046;-77
2021/05/08 08:42:19;;;;;;;8.88;6.25;;;12.40;91.90;;;;;;5026351;28;20048;-77
2021/05/08 08:44:45;;;;;;;9.82;5.75;;;12.50;91.70;;;;;;5023191;28;20438;-77
2021/05/08 08:47:28;;;;;;;7.88;5.55;;;12.50;89.10;;;;;;5023493;28;20061;-77
2021/05/08 08:50:00;;;;;;;6.68;5.30;;;12.60;89.90;;;;;;5010357;28;20038;-77
2021/05/08 08:52:27;;;;;;;7.18;5.60;;;12.80;90.60;;;;;;5038338;28;20037;-78
2021/05/08 08:54:54;;;;;;;7.82;4.85;;;12.90;84.30;;;;;;5016065;28;20109;-77
2021/05/08 08:57:43;;;;;;;8.43;5.13;;;12.90;85.70;;;;;;5023128;28;20043;-79
2021/05/08 09:00:14;;;;;;;8.10;5.03;;;13.00;76.70;;;;;;5024328;28;20058;-76
2021/05/08 09:02:45;;;;;;;6.05;4.72;;;12.80;78.10;;;;;;5021059;28;20041;-78
2021/05/08 09:05:16;;;;;;;9.52;5.15;;;12.80;79.30;;;;;;5021790;28;20038;-80
2021/05/08 09:07:50;;;;;;;9.40;5.40;;;12.90;83.60;;;;;;5028168;28;20463;-78
2021/05/08 09:10:27;;;;;;;7.68;5.72;;;13.10;79.90;;;;;;5038562;28;20052;-77
2021/05/08 09:12:55;;;;;;;8.80;5.65;;;13.20;81.50;;;;;;5019857;28;20052;-76
2021/05/08 09:15:41;;;;;;;8.07;5.25;;;13.40;77.80;;;;;;5019160;28;20033;-77
2021/05/08 09:18:27;;;;;;;7.63;4.97;;;13.50;81.60;;;;;;5016147;28;20041;-77
2021/05/08 09:20:52;;;;;;;7.30;4.90;;;13.60;80.60;;;;;;5035971;28;20140;-77
2021/05/08 09:23:22;;;;;;;8.20;5.15;;;13.70;79.80;;;;;;5048762;28;20108;-77
2021/05/08 09:26:01;;;;;;;6.32;4.82;;;13.90;79.10;;;;;;5030171;28;20033;-77
2021/05/08 09:28:29;;;;;;;8.10;5.50;;;14.10;73.80;;;;;;5033095;28;20071;-77
2021/05/08 09:30:56;;;;;;;7.72;5.20;;;14.30;77.70;;;;;;5044727;28;20069;-76
2021/05/08 09:33:27;;;;;;;13.98;5.53;;;14.50;76.20;;;;;;5036354;28;20124;-77
2021/05/08 09:36:11;;;;;;;7.25;5.07;;;14.60;73.00;;;;;;5042634;28;20042;-75
2021/05/08 09:38:39;;;;;;;7.72;4.85;;;14.70;69.70;;;;;;5032797;28;20394;-76
2021/05/08 09:41:08;;;;;;;6.57;4.57;;;14.80;71.30;;;;;;5030091;28;20084;-77
2021/05/08 09:43:34;;;;;;;6.68;4.53;;;14.70;69.80;;;;;;5025327;28;20114;-78
2021/05/08 09:46:00;;;;;;;6.22;4.30;;;14.80;70.90;;;;;;5030716;28;20169;-78
2021/05/08 09:48:31;;;;;;;;;;;14.90;70.60;;;;;;5038039;28;20826;-74
2021/05/08 09:51:17;;;;;;;6.70;4.38;;;14.90;68.00;;;;;;5037166;28;19921;-76
2021/05/08 09:53:43;;;;;;;8.98;4.95;;;14.90;67.40;;;;;;5032943;28;20053;-78
2021/05/08 09:56:38;;;;;;;8.35;5.60;;;14.90;65.30;;;;;;5036405;28;20427;-80
2021/05/08 09:59:26;;;;;;;7.20;4.90;;;14.90;63.70;;;;;;5016721;28;20052;-78
2021/05/08 10:02:04;;;;;;;8.43;4.65;;;14.90;64.10;;;;;;5030373;28;20033;-77
2021/05/08 10:04:42;;;;;;;7.65;4.85;;;14.90;64.00;;;;;;5029818;28;20490;-76
2021/05/08 10:07:17;;;;;;;9.20;5.18;;;14.90;66.20;;;;;;5030359;28;20044;-78
2021/05/08 10:09:45;;;;;;;7.03;5.10;;;15.00;65.60;;;;;;5024672;28;20467;-79
2021/05/08 10:12:15;;;;;;;7.35;5.00;;;15.00;66.50;;;;;;5029163;28;20120;-77
2021/05/08 10:14:43;;;;;;;9.23;5.30;;;15.10;66.50;;;;;;5024996;28;20372;-78
2021/05/08 10:17:11;;;;;;;8.38;5.13;;;15.10;66.10;;;;;;5030883;28;20119;-78
2021/05/08 10:19:39;;;;;;;8.65;5.70;;;15.20;63.30;;;;;;5029034;28;20124;-78
2021/05/08 10:22:07;;;;;;;12.63;6.03;;;14.90;63.40;;;;;;5038562;28;20030;-77
2021/05/08 10:24:35;;;;;;;8.13;6.30;;;14.80;64.00;;;;;;5024891;28;20072;-78
2021/05/08 10:27:01;;;;;;;8.40;5.78;;;14.90;63.80;;;;;;5032134;28;20047;-75
2021/05/08 10:29:32;;;;;;;9.68;6.65;;;14.80;64.30;;;;;;5035032;28;20045;-77
2021/05/08 10:32:04;;;;;;;10.65;6.57;;;14.70;63.40;;;;;;5044219;28;20480;-80
2021/05/08 10:34:35;;;;;;;12.80;6.45;;;14.70;62.30;;;;;;5021610;28;20030;-77
2021/05/08 10:37:09;;;;;;;12.13;7.10;;;14.70;63.00;;;;;;5018549;28;20072;-79
2021/05/08 10:40:01;;;;;;;12.10;7.03;;;14.80;63.80;;;;;;5044473;28;20173;-77
2021/05/08 10:42:36;;;;;;;11.80;7.43;;;15.00;65.70;;;;;;5032327;28;20478;-78
2021/05/08 10:45:06;;;;;;;13.38;8.02;;;15.20;65.80;;;;;;5026649;28;20414;-78
2021/05/08 10:47:54;;;;;;;10.02;7.78;;;15.30;63.90;;;;;;5023315;28;20037;-78
2021/05/08 10:50:37;;;;;;;10.55;7.38;;;15.30;64.50;;;;;;5031386;28;20041;-80
2021/05/08 10:53:15;;;;;;;11.07;7.22;;;15.30;64.20;;;;;;5027955;28;20048;-77
2021/05/08 10:55:58;;;;;;;13.95;8.65;;;15.30;62.30;;;;;;5027172;28;20375;-77
2021/05/08 10:58:34;;;;;;;13.23;8.10;;;15.30;63.00;;;;;;5021444;28;20041;-75
2021/05/08 11:01:10;;;;;;;;;;;15.30;62.10;;;;;;5017898;28;20046;-77
2021/05/08 11:03:44;;;;;;;10.50;7.35;;;15.20;62.60;;;;;;5022922;28;20274;-77
2021/05/08 11:06:29;;;;;;;11.43;7.95;;;15.30;63.20;;;;;;5024545;28;20084;-77
2021/05/08 11:08:55;;;;;;;11.75;8.25;;;15.30;62.50;;;;;;5038689;28;20044;-76
2021/05/08 11:11:25;;;;;;;10.80;8.23;;;15.40;58.60;;;;;;5018113;28;20033;-77
2021/05/08 11:14:04;;;;;;;13.80;8.15;;;15.30;61.20;;;;;;5026503;28;20036;-77
2021/05/08 11:16:31;;;;;;;14.18;7.53;;;15.20;62.90;;;;;;5038484;28;20030;-78
2021/05/08 11:19:01;;;;;;;11.15;7.57;;;15.10;60.80;;;;;;5029457;28;20113;-77
2021/05/08 11:21:30;;;;;;;13.18;8.80;;;15.00;61.40;;;;;;5029072;28;20037;-77
2021/05/08 11:24:09;;;;;;;14.43;8.75;;;15.00;63.10;;;;;;5019690;28;20126;-75
2021/05/08 11:26:37;;;;;;;11.02;8.20;;;15.10;62.30;;;;;;5036261;28;20032;-77
2021/05/08 11:29:24;;;;;;;12.88;7.78;;;15.30;64.20;;;;;;5023497;28;20547;-77
2021/05/08 11:31:54;;;;;;;12.90;8.77;;;15.50;64.80;;;;;;5030795;28;20038;-75
2021/05/08 11:34:29;;;;;;;15.48;8.63;;;15.80;63.60;;;;;;5036805;28;20038;-79
2021/05/08 11:37:11;;;;;;;13.30;8.25;;;15.80;61.90;;;;;;5026927;28;20045;-78
2021/05/08 11:39:41;;;;;;;14.90;8.60;;;15.90;63.60;;;;;;5036299;28;20049;-77
2021/05/08 11:42:09;;;;;;;11.70;8.63;;;15.90;61.70;;;;;;5025889;28;20049;-75
2021/05/08 11:44:38;;;;;;;12.88;8.88;;;16.00;62.40;;;;;;5027668;28;20041;-74
2021/05/08 11:50:12;;;;;;;11.60;8.68;;;16.00;62.10;;;;;;5018475;28;20057;-79
2021/05/08 11:52:47;;;;;;;13.48;8.82;;;15.90;59.30;;;;;;5029698;28;20109;-76
2021/05/08 11:55:13;;;;;;;13.45;8.30;;;15.50;60.40;;;;;;5029949;28;20111;-77
2021/05/08 11:57:43;;;;;;;13.85;8.60;;;15.30;62.90;;;;;;5026887;28;20080;-78
2021/05/08 12:00:20;;;;;;;10.98;7.72;;;15.30;63.30;;;;;;5020557;28;20030;-77
2021/05/08 12:02:50;;;;;;;11.80;6.70;;;15.20;63.90;;;;;;5027759;28;20085;-75
2021/05/08 12:05:16;;;;;;;9.40;6.40;;;15.20;63.00;;;;;;5029065;28;20037;-79
2021/05/08 12:07:43;;;;;;;;;;;15.00;61.40;;;;;;5029286;28;20029;-78
2021/05/08 12:10:22;;;;;;;8.48;4.93;;;14.80;63.50;;;;;;5028813;28;20008;-75
2021/05/08 12:12:50;;;;;;;7.90;5.68;;;14.70;63.50;;;;;;5027795;28;20034;-75
2021/05/08 12:15:21;;;;;;;7.47;5.03;;;14.50;63.90;;;;;;5029503;28;20041;-75
2021/05/08 12:17:48;;;;;;;9.15;5.55;;;14.30;65.00;;;;;;5021488;28;20614;-75
2021/05/08 12:20:18;;;;;;;8.70;5.15;;;14.20;65.70;;;;;;5026588;28;20135;-76
2021/05/08 12:22:45;;;;;;;6.32;4.35;;;14.30;67.30;;;;;;5041574;28;20506;-75
2021/05/08 12:25:23;;;;;;;6.13;4.35;;;14.40;66.80;;;;;;5025831;28;20152;-78
2021/05/08 12:27:49;;;;;;;10.73;4.50;;;14.50;66.80;;;;;;5015026;28;20033;-76
2021/05/08 12:30:15;;;;;;;5.75;4.50;;;14.60;65.40;;;;;;5024862;28;20064;-77
2021/05/08 12:32:52;;;;;;;7.32;4.78;;;14.70;61.20;;;;;;5025528;28;20041;-75
2021/05/08 12:35:20;;;;;;;8.43;5.10;;;14.50;63.40;;;;;;5026266;28;20134;-74
2021/05/08 12:37:47;;;;;;;6.30;4.93;;;14.40;64.20;;;;;;5021365;28;20385;-76
2021/05/08 12:40:13;;;;;;;8.13;5.50;;;14.20;65.50;;;;;;5028708;28;20892;-75
2021/05/08 12:42:44;;;;;;;6.53;5.68;;;14.10;65.20;;;;;;5037633;28;20399;-76
2021/05/08 12:45:13;;;;;;;9.07;5.40;;;13.90;65.60;;;;;;5027771;28;20043;-75
2021/05/08 12:47:41;;;;;;;6.95;5.68;;;13.80;67.40;;;;;;5022183;28;20033;-75
2021/05/08 12:50:11;;;;;;;7.65;5.70;;;13.80;67.90;;;;;;5030673;28;20050;-77
2021/05/08 12:52:58;;;;;;;7.82;5.82;;;13.70;70.40;;;;;;5021282;28;20038;-76
2021/05/08 12:55:26;;;;;;;8.60;5.97;;;13.80;72.40;;;;;;5027660;28;20483;-76